createdAt,value
2019-01-28T00:00:43.332Z,49.47
2019-01-28T00:03:17.749Z,52.23
2019-01-28T00:05:57.891Z,51.70
2019-01-28T00:08:31.558Z,52.20
2019-01-28T00:11:09.902Z,54.57
2019-01-28T00:13:41.678Z,50.33
2019-01-28T00:16:15.778Z,52.03
2019-01-28T00:18:46.721Z,49.20
2019-01-28T00:21:18.785Z,52.07
2019-01-28T00:23:51.458Z,50.23
2019-01-28T00:26:24.441Z,50.07
2019-01-28T00:29:01.869Z,49.67
2019-01-28T00:31:41.780Z,49.03
2019-01-28T00:34:16.214Z,49.40
2019-01-28T00:36:52.088Z,51.53
2019-01-28T00:39:24.098Z,46.43
2019-01-28T00:41:58.234Z,51.93
2019-01-28T00:44:36.476Z,51.83
2019-01-28T00:47:07.477Z,50.43
2019-01-28T00:49:41.902Z,47.57
2019-01-28T00:52:16.626Z,47.03
2019-01-28T00:54:47.879Z,54.67
2019-01-28T00:57:20.082Z,51.20
2019-01-28T00:59:53.635Z,52.60
2019-01-28T01:02:35.274Z,50.53
2019-01-28T01:05:17.730Z,51.53
2019-01-28T01:07:48.667Z,48.67
2019-01-28T01:10:19.196Z,51.67
2019-01-28T01:12:50.132Z,52.73
2019-01-28T01:15:20.661Z,47.60
2019-01-28T01:17:52.109Z,50.40
2019-01-28T01:20:22.857Z,49.40
2019-01-28T01:22:54.629Z,50.47
2019-01-28T01:25:26.897Z,48.93
2019-01-28T01:27:59.762Z,46.13
2019-01-28T01:30:30.806Z,49.90
2019-01-28T01:33:01.864Z,48.03
2019-01-28T01:35:32.678Z,49.50
2019-01-28T01:38:04.235Z,47.37
2019-01-28T01:40:35.672Z,50.40
2019-01-28T01:43:06.411Z,46.50
2019-01-28T01:45:37.079Z,46.10
2019-01-28T01:48:07.779Z,48.23
2019-01-28T01:50:39.454Z,48.17
2019-01-28T01:53:10.569Z,45.93
2019-01-28T01:55:42.427Z,48.37
2019-01-28T01:58:14.915Z,50.50
2019-01-28T02:00:48.526Z,45.30
2019-01-28T02:03:19.647Z,46.20
2019-01-28T02:05:52.646Z,52.33
2019-01-28T02:08:23.287Z,46.93
2019-01-28T02:10:53.818Z,51.37
2019-01-28T02:13:24.333Z,48.83
2019-01-28T02:15:54.854Z,44.67
2019-01-28T02:18:30.727Z,45.47
2019-01-28T02:21:02.893Z,47.43
2019-01-28T02:23:34.855Z,50.50
2019-01-28T02:26:05.886Z,50.57
2019-01-28T02:28:37.855Z,49.27
2019-01-28T02:31:22.007Z,47.83
2019-01-28T02:33:59.484Z,54.00
2019-01-28T02:36:31.436Z,49.40
2019-01-28T02:39:02.597Z,50.07
2019-01-28T02:41:33.095Z,47.07
2019-01-28T02:44:04.069Z,49.63
2019-01-28T02:46:34.586Z,49.23
2019-01-28T02:49:05.053Z,49.00
2019-01-28T02:51:36.037Z,48.53
2019-01-28T02:54:07.711Z,54.40
2019-01-28T02:56:38.859Z,51.73
2019-01-28T02:59:09.798Z,48.33
2019-01-28T03:01:42.082Z,53.67
2019-01-28T03:04:12.475Z,49.50
2019-01-28T03:06:42.687Z,46.57
2019-01-28T03:09:13.947Z,49.20
2019-01-28T03:11:45.107Z,51.80
2019-01-28T03:14:16.032Z,47.53
2019-01-28T03:16:46.857Z,47.37
2019-01-28T03:19:17.490Z,47.97
2019-01-28T03:21:48.430Z,48.33
2019-01-28T03:24:20.486Z,44.83
2019-01-28T03:26:51.094Z,53.23
2019-01-28T03:29:22.799Z,52.47
2019-01-28T03:31:54.016Z,49.90
2019-01-28T03:34:24.872Z,46.83
2019-01-28T03:36:55.609Z,54.50
2019-01-28T03:39:26.951Z,56.23
2019-01-28T03:41:57.457Z,53.20
2019-01-28T03:44:28.300Z,57.43
2019-01-28T03:46:59.647Z,53.80
2019-01-28T03:49:30.897Z,52.73
2019-01-28T03:52:02.261Z,50.13
2019-01-28T03:54:36.680Z,53.03
2019-01-28T03:57:08.088Z,54.97
2019-01-28T03:59:42.420Z,49.97
2019-01-28T04:02:14.690Z,50.90
2019-01-28T04:04:47.486Z,46.87
2019-01-28T04:07:20.875Z,45.97
2019-01-28T04:09:55.503Z,50.23
2019-01-28T04:12:28.907Z,47.47
2019-01-28T04:15:01.589Z,47.03
2019-01-28T04:17:37.438Z,46.97
2019-01-28T04:20:16.447Z,46.90
2019-01-28T04:22:53.656Z,44.90
2019-01-28T04:25:29.085Z,50.23
2019-01-28T04:28:06.072Z,50.40
2019-01-28T04:30:40.475Z,42.50
2019-01-28T04:33:17.477Z,49.97
2019-01-28T04:35:55.677Z,42.80
2019-01-28T04:38:33.076Z,44.23
2019-01-28T04:41:12.197Z,45.73
2019-01-28T04:43:48.063Z,45.50
2019-01-28T04:46:24.099Z,40.07
2019-01-28T04:49:00.994Z,42.97
2019-01-28T04:51:37.084Z,45.13
2019-01-28T04:54:11.081Z,40.23
2019-01-28T04:56:47.095Z,40.83
2019-01-28T04:59:17.447Z,76.33
2019-01-28T05:01:52.456Z,76.13
2019-01-28T05:04:29.753Z,90.70
2019-01-28T05:07:06.943Z,104.43
2019-01-28T05:09:41.452Z,104.67
2019-01-28T05:12:16.496Z,95.80
2019-01-28T05:14:52.357Z,80.13
2019-01-28T05:17:26.448Z,55.57
2019-01-28T05:20:00.091Z,50.63
2019-01-28T05:22:34.899Z,51.93
2019-01-28T05:25:09.415Z,55.77
2019-01-28T05:27:44.049Z,54.60
2019-01-28T05:30:19.877Z,60.67
2019-01-28T05:32:52.973Z,55.67
2019-01-28T05:35:26.066Z,52.70
2019-01-28T05:37:57.733Z,59.40
2019-01-28T05:40:28.872Z,51.00
2019-01-28T05:42:59.588Z,54.20
2019-01-28T05:45:34.105Z,55.90
2019-01-28T05:48:08.031Z,55.53
2019-01-28T05:54:43.156Z,90.00
2019-01-28T05:57:44.958Z,189.97
2019-01-28T06:08:12.483Z,352.77
2019-01-28T06:11:06.426Z,388.27
2019-01-28T06:13:36.645Z,286.90
2019-01-28T06:16:10.684Z,248.23
2019-01-28T06:18:46.316Z,246.77
2019-01-28T06:21:22.086Z,208.30
2019-01-28T06:23:59.444Z,107.93
2019-01-28T06:26:35.102Z,122.97
2019-01-28T06:29:05.316Z,67.43
2019-01-28T06:31:35.449Z,62.73
2019-01-28T06:34:05.652Z,60.67
2019-01-28T06:36:35.799Z,65.10
2019-01-28T06:39:08.371Z,62.03
2019-01-28T06:41:38.870Z,65.30
2019-01-28T06:44:09.312Z,55.87
2019-01-28T06:46:39.839Z,67.50
2019-01-28T06:49:10.674Z,62.03
2019-01-28T06:51:42.079Z,69.50
2019-01-28T06:54:13.353Z,57.60
2019-01-28T06:56:43.792Z,79.13
2019-01-28T06:59:13.903Z,79.30
2019-01-28T07:01:44.129Z,75.37
2019-01-28T07:04:14.140Z,78.97
2019-01-28T07:06:44.367Z,82.17
2019-01-28T07:09:14.998Z,84.17
2019-01-28T07:11:45.832Z,103.77
2019-01-28T07:14:17.395Z,88.27
2019-01-28T07:16:48.018Z,79.13
2019-01-28T07:19:17.852Z,84.97
2019-01-28T07:21:47.435Z,78.57
2019-01-28T07:24:17.660Z,88.17
2019-01-28T07:26:47.792Z,69.53
2019-01-28T07:29:17.712Z,73.50
2019-01-28T07:31:47.412Z,77.07
2019-01-28T07:34:17.523Z,72.63
2019-01-28T07:36:47.441Z,69.57
2019-01-28T07:39:17.356Z,66.00
2019-01-28T07:41:47.792Z,61.63
2019-01-28T07:44:17.811Z,60.37
2019-01-28T07:46:47.811Z,54.13
2019-01-28T07:49:17.722Z,51.27
2019-01-28T07:51:47.740Z,67.17
2019-01-28T07:54:18.291Z,58.67
2019-01-28T07:56:48.895Z,54.83
2019-01-28T07:59:19.451Z,60.57
2019-01-28T08:01:52.232Z,68.53
2019-01-28T08:04:23.252Z,59.93
2019-01-28T08:06:59.366Z,65.60
2019-01-28T08:09:50.852Z,66.33
2019-01-28T08:12:49.232Z,67.50
2019-01-28T08:15:26.700Z,88.40
2019-01-28T08:18:00.832Z,99.37
2019-01-28T08:20:31.872Z,90.87
2019-01-28T08:23:01.992Z,63.47
2019-01-28T08:25:32.396Z,51.87
2019-01-28T08:28:02.831Z,51.77
2019-01-28T08:30:37.140Z,49.40
2019-01-28T08:33:07.275Z,48.93
2019-01-28T08:35:38.012Z,63.97
2019-01-28T08:38:08.137Z,55.90
2019-01-28T08:40:38.432Z,58.00
2019-01-28T08:43:08.771Z,51.83
2019-01-28T08:45:38.997Z,54.67
2019-01-28T08:48:08.804Z,48.63
2019-01-28T08:50:39.729Z,52.53
2019-01-28T08:53:10.871Z,48.57
2019-01-28T08:55:42.332Z,52.33
2019-01-28T08:58:12.893Z,49.73
2019-01-28T09:00:45.031Z,53.33
2019-01-28T09:03:15.979Z,53.27
2019-01-28T09:05:45.980Z,49.73
2019-01-28T09:08:15.891Z,49.90
2019-01-28T09:10:46.210Z,53.00
2019-01-28T09:13:16.432Z,52.63
2019-01-28T09:15:46.773Z,54.33
2019-01-28T09:18:17.415Z,55.43
2019-01-28T09:20:51.393Z,55.13
2019-01-28T09:23:20.998Z,53.87
2019-01-28T09:25:50.809Z,53.50
2019-01-28T09:28:22.673Z,56.20
2019-01-28T09:30:52.492Z,50.93
2019-01-28T09:33:22.510Z,56.03
2019-01-28T09:35:57.371Z,50.77
2019-01-28T09:38:27.543Z,52.40
2019-01-28T09:40:58.902Z,55.07
2019-01-28T09:43:29.221Z,54.90
2019-01-28T09:45:59.242Z,51.40
2019-01-28T09:48:34.164Z,49.50
2019-01-28T09:51:00.704Z,56.33
2019-01-28T09:53:30.320Z,52.30
2019-01-28T09:56:00.020Z,55.40
2019-01-28T09:58:31.479Z,54.67
2019-01-28T10:01:07.842Z,59.37
2019-01-28T10:03:37.959Z,56.10
2019-01-28T10:06:07.973Z,57.77
2019-01-28T10:08:37.883Z,60.77
2019-01-28T10:11:07.814Z,60.00
2019-01-28T10:13:37.711Z,69.30
2019-01-28T10:16:07.531Z,62.17
2019-01-28T10:18:41.881Z,67.07
2019-01-28T10:21:09.100Z,65.07
2019-01-28T10:23:39.083Z,65.63
2019-01-28T10:26:11.697Z,80.33
2019-01-28T10:28:41.393Z,70.97
2019-01-28T10:31:11.621Z,72.90
2019-01-28T10:33:41.432Z,89.60
2019-01-28T10:36:11.570Z,89.40
2019-01-28T10:38:41.462Z,79.77
2019-01-28T10:41:11.282Z,84.30
2019-01-28T10:43:41.092Z,78.50
2019-01-28T10:46:11.092Z,75.90
2019-01-28T10:48:49.547Z,69.63
2019-01-28T10:51:15.841Z,73.00
2019-01-28T10:53:45.771Z,64.60
2019-01-28T10:56:15.680Z,50.60
2019-01-28T10:58:45.493Z,51.30
2019-01-28T11:01:15.191Z,54.43
2019-01-28T11:03:45.722Z,52.40
2019-01-28T11:06:15.434Z,53.70
2019-01-28T11:08:45.448Z,56.73
2019-01-28T11:11:15.372Z,59.57
2019-01-28T11:13:45.479Z,63.00
2019-01-28T11:16:15.499Z,62.07
2019-01-28T11:18:45.785Z,58.50
2019-01-28T11:21:16.477Z,64.07
2019-01-28T11:23:46.398Z,62.17
2019-01-28T11:26:16.282Z,61.40
2019-01-28T11:28:46.238Z,58.57
2019-01-28T11:31:16.038Z,53.07
2019-01-28T11:33:46.227Z,57.30
2019-01-28T11:36:16.454Z,58.23
2019-01-28T11:38:46.588Z,58.50
2019-01-28T11:41:16.548Z,55.37
2019-01-28T11:43:46.472Z,54.87
2019-01-28T11:46:16.733Z,60.53
2019-01-28T11:48:46.493Z,59.37
2019-01-28T11:51:19.730Z,61.50
2019-01-28T11:53:58.552Z,73.57
2019-01-28T11:56:30.716Z,73.63
2019-01-28T11:59:01.760Z,70.00
2019-01-28T12:01:42.327Z,64.53
2019-01-28T12:04:14.795Z,68.37
2019-01-28T12:06:52.702Z,67.57
2019-01-28T12:09:23.850Z,68.20
2019-01-28T12:11:56.018Z,67.60
2019-01-28T12:14:27.769Z,75.53
2019-01-28T12:16:57.776Z,72.57
2019-01-28T12:19:32.702Z,72.87
2019-01-28T12:22:02.721Z,81.60
2019-01-28T12:24:35.814Z,85.67
2019-01-28T12:27:06.749Z,85.33
2019-01-28T12:29:37.792Z,89.17
2019-01-28T12:32:07.811Z,97.20
2019-01-28T12:35:01.079Z,88.93
2019-01-28T12:37:34.167Z,88.93
2019-01-28T12:40:04.374Z,102.13
2019-01-28T12:42:45.462Z,103.23
2019-01-28T12:45:17.311Z,114.17
2019-01-28T12:47:49.172Z,98.43
2019-01-28T12:50:23.690Z,89.90
2019-01-28T12:52:55.757Z,86.90
2019-01-28T12:55:25.882Z,78.10
2019-01-28T12:57:58.042Z,72.67
2019-01-28T13:00:39.223Z,67.53
2019-01-28T13:03:10.783Z,66.07
2019-01-28T13:05:40.910Z,63.63
2019-01-28T13:08:11.222Z,62.80
2019-01-28T13:10:41.874Z,55.70
2019-01-28T13:13:12.492Z,57.30
2019-01-28T13:15:43.112Z,63.80
2019-01-28T13:18:13.743Z,72.00
2019-01-28T13:20:45.832Z,65.57
2019-01-28T13:23:19.314Z,66.83
2019-01-28T13:25:56.513Z,62.83
2019-01-28T13:28:32.252Z,60.60
2019-01-28T13:31:07.812Z,65.43
2019-01-28T13:33:38.338Z,59.97
2019-01-28T13:36:17.673Z,68.67
2019-01-28T13:39:24.016Z,81.67
2019-01-28T13:42:00.493Z,89.83
2019-01-28T13:44:49.513Z,88.07
2019-01-28T13:47:55.013Z,83.33
2019-01-28T13:58:08.894Z,65.23
2019-01-28T14:00:43.012Z,70.93
2019-01-28T14:03:14.391Z,66.47
2019-01-28T14:05:45.284Z,56.90
2019-01-28T14:08:16.012Z,60.33
2019-01-28T14:10:50.640Z,59.33
2019-01-28T14:13:22.304Z,64.23
2019-01-28T14:15:52.723Z,59.93
2019-01-28T14:18:23.671Z,60.27
2019-01-28T14:20:53.883Z,68.30
2019-01-28T14:23:24.213Z,78.70
2019-01-28T14:25:57.290Z,71.83
2019-01-28T14:28:27.333Z,71.43
2019-01-28T14:30:59.792Z,66.80
2019-01-28T14:33:33.109Z,61.40
2019-01-28T14:36:03.015Z,60.83
2019-01-28T14:38:33.213Z,56.37
2019-01-28T14:41:04.458Z,60.00
2019-01-28T14:43:34.473Z,60.17
2019-01-28T14:46:05.821Z,50.00
2019-01-28T14:48:36.267Z,53.57
2019-01-28T14:51:06.792Z,52.40
2019-01-28T14:53:36.799Z,56.07
2019-01-28T14:56:08.307Z,55.00
2019-01-28T14:58:57.832Z,65.50
2019-01-28T15:01:29.093Z,68.27
2019-01-28T15:03:59.900Z,64.80
2019-01-28T15:06:32.491Z,60.90
2019-01-28T15:09:02.711Z,52.57
2019-01-28T15:11:33.741Z,64.73
2019-01-28T15:14:06.951Z,59.47
2019-01-28T15:16:39.931Z,60.20
2019-01-28T15:19:33.811Z,60.73
2019-01-28T15:22:04.852Z,61.77
2019-01-28T15:24:38.855Z,65.67
2019-01-28T15:27:09.795Z,61.20
2019-01-28T15:29:40.631Z,55.33
2019-01-28T15:32:12.993Z,57.57
2019-01-28T15:34:47.742Z,63.07
2019-01-28T15:37:17.953Z,60.23
2019-01-28T15:39:48.371Z,60.27
2019-01-28T15:42:18.792Z,60.50
2019-01-28T15:44:49.521Z,58.47
2019-01-28T15:47:19.851Z,58.53
2019-01-28T15:49:49.874Z,59.93
2019-01-28T15:52:25.731Z,73.40
2019-01-28T15:54:57.892Z,69.70
2019-01-28T15:57:28.093Z,91.67
2019-01-28T15:59:58.655Z,79.77
2019-01-28T16:02:33.771Z,67.73
2019-01-28T16:05:05.546Z,64.20
2019-01-28T16:07:36.072Z,70.50
2019-01-28T16:10:09.572Z,64.03
2019-01-28T16:12:40.392Z,63.37
2019-01-28T16:15:13.991Z,62.37
2019-01-28T16:17:45.452Z,57.50
2019-01-28T16:20:18.602Z,61.83
2019-01-28T16:22:50.939Z,62.70
2019-01-28T16:25:21.433Z,62.63
2019-01-28T16:27:52.777Z,68.97
2019-01-28T16:30:26.314Z,64.70
2019-01-28T16:32:59.767Z,73.13
2019-01-28T16:35:31.084Z,65.03
2019-01-28T16:38:02.779Z,69.57
2019-01-28T16:40:33.204Z,67.30
2019-01-28T16:43:04.341Z,62.43
2019-01-28T16:45:35.791Z,60.20
2019-01-28T16:48:07.854Z,60.07
2019-01-28T16:50:39.006Z,62.43
2019-01-28T16:53:11.271Z,61.97
2019-01-28T16:55:44.091Z,56.63
2019-01-28T16:58:16.551Z,56.37
2019-01-28T17:00:51.473Z,58.53
2019-01-28T17:03:45.044Z,53.20
2019-01-28T17:06:37.982Z,55.57
2019-01-28T17:09:50.907Z,57.87
2019-01-28T17:12:19.487Z,51.87
2019-01-28T17:18:42.133Z,51.00
2019-01-28T17:21:37.072Z,53.57
2019-01-28T17:47:32.112Z,56.87
2019-01-28T17:50:30.875Z,74.67
2019-01-28T17:53:47.209Z,66.23
2019-01-28T18:13:18.092Z,68.30
2019-01-28T18:25:36.091Z,82.40
2019-01-28T18:28:15.067Z,78.40
2019-01-28T18:30:55.341Z,85.97
2019-01-28T18:33:30.465Z,86.53
2019-01-28T18:36:12.061Z,76.60
2019-01-28T18:38:49.753Z,67.97
2019-01-28T18:41:35.546Z,70.67
2019-01-28T18:44:13.741Z,75.27
2019-01-28T18:46:58.702Z,73.90
2019-01-28T18:49:35.931Z,68.63
2019-01-28T18:52:08.675Z,66.80
2019-01-28T18:54:41.866Z,62.13
2019-01-28T19:00:09.950Z,61.47
2019-01-28T19:02:48.073Z,63.00
2019-01-28T19:05:39.482Z,59.97
2019-01-28T19:08:19.731Z,65.47
2019-01-28T19:11:12.791Z,67.67
2019-01-28T19:13:58.111Z,71.67
2019-01-28T19:16:45.999Z,62.80
2019-01-28T19:19:36.912Z,64.17
2019-01-28T19:22:26.786Z,65.80
2019-01-28T19:25:23.742Z,64.00
2019-01-28T19:27:57.854Z,67.30
2019-01-28T19:43:55.076Z,75.80
2019-01-28T19:49:52.358Z,80.50
2019-01-28T19:54:59.970Z,78.40
2019-01-28T19:57:39.004Z,72.77
2019-01-28T20:00:13.831Z,75.43
2019-01-28T20:02:55.518Z,78.23
2019-01-28T20:05:27.787Z,70.63
2019-01-28T20:08:04.662Z,66.17
2019-01-28T20:10:36.731Z,60.40
2019-01-28T20:13:10.941Z,76.07
2019-01-28T20:15:49.083Z,107.50
2019-01-28T20:18:26.847Z,70.27
2019-01-28T20:21:02.428Z,59.80
2019-01-28T20:23:37.242Z,71.03
2019-01-28T20:26:21.060Z,60.17
2019-01-28T20:28:57.453Z,65.27
2019-01-28T20:31:41.894Z,62.50
2019-01-28T20:34:20.991Z,75.30
2019-01-28T20:37:19.725Z,62.07
2019-01-28T20:39:59.032Z,50.53
2019-01-28T20:49:07.086Z,64.73
2019-01-28T20:52:05.020Z,56.70
2019-01-28T20:55:02.134Z,52.53
2019-01-28T20:57:37.113Z,47.67
2019-01-28T21:00:41.184Z,53.73
2019-01-28T21:03:22.343Z,54.63
2019-01-28T21:06:26.481Z,51.13
2019-01-28T21:09:23.327Z,47.70
2019-01-28T21:15:19.509Z,54.63
2019-01-28T21:18:08.053Z,50.63
2019-01-28T21:20:29.512Z,44.40
2019-01-28T21:23:23.096Z,47.33
2019-01-28T21:35:55.010Z,53.97
2019-01-28T21:41:53.271Z,34.70
2019-01-28T21:45:09.617Z,36.77
2019-01-28T21:55:55.883Z,40.23
2019-01-28T21:58:27.691Z,36.83
2019-01-28T22:15:07.241Z,40.00
2019-01-28T22:17:37.768Z,41.53
2019-01-28T22:20:09.386Z,40.13
2019-01-28T22:22:40.372Z,45.10
2019-01-28T22:25:11.722Z,38.70
2019-01-28T22:27:41.828Z,40.20
2019-01-28T22:30:13.791Z,38.27
2019-01-28T22:32:44.081Z,43.47
2019-01-28T22:35:16.485Z,51.83
2019-01-28T22:37:46.399Z,44.87
2019-01-28T22:40:20.828Z,45.40
2019-01-28T22:42:50.939Z,44.70
2019-01-28T22:45:27.194Z,44.50
2019-01-28T22:47:58.756Z,48.97
2019-01-28T22:50:29.691Z,44.97
2019-01-28T22:53:03.197Z,38.90
2019-01-28T22:55:36.537Z,39.87
2019-01-28T22:58:06.804Z,43.43
2019-01-28T23:00:51.161Z,44.97
2019-01-28T23:03:24.872Z,40.53
2019-01-28T23:05:56.331Z,43.53
2019-01-28T23:08:26.651Z,46.63
2019-01-28T23:10:56.651Z,41.00
2019-01-28T23:13:27.691Z,40.27
2019-01-28T23:15:58.842Z,39.73
2019-01-28T23:18:29.668Z,36.10
2019-01-28T23:21:00.011Z,37.03
2019-01-28T23:23:30.623Z,35.60
2019-01-28T23:26:01.874Z,31.47
2019-01-28T23:28:32.712Z,31.77
2019-01-28T23:31:04.272Z,33.87
2019-01-28T23:33:35.398Z,33.87
2019-01-28T23:36:06.754Z,34.73
2019-01-28T23:38:41.382Z,29.50
2019-01-28T23:41:30.741Z,32.83
2019-01-28T23:44:01.481Z,33.10
2019-01-28T23:46:32.421Z,26.90
2019-01-28T23:49:03.253Z,33.43
2019-01-28T23:51:33.481Z,28.13
2019-01-28T23:54:05.431Z,28.83
2019-01-28T23:56:36.481Z,28.30
2019-01-28T23:59:08.441Z,28.07
